Adelaide, California
Current Conditions -  °F | °C
As of 6:53 PM on Thursday 27 Nov 2014 (Local Time) from KPRB Reporting Station
Clear Clear  
Wind Chill: 55°   Ceiling: Unl
Heat Index: 55°   Visibility: 10mi
Dew Point: 36°   Wind: 5mph
Humidity: 49%   Direction: 30°NNE
Pressure: 30.07"   Gusts: NA
Location:  35.6618°N, 120.707°W
Report Text: KPRB 280253Z AUTO 03004KT 10SM CLR 13/02 A3007 RMK AO2 SLP181 T01280022 53004 TSNO
Loading
Personal Weather Stations






























Interactive Weather Map New forecast layout! Learn more

10-Day Weather Forecast

Advertisements
Track Severe Weather on mobile